Terminal Aerodrome Forecast
Issued by NWS

Home | Current Version | Previous Version | Text Only | Print | Product List | Glossary On
Versions: 1 2 3 4 5 6 7 8 9 10 11 12
000
FTUS42 KGSP 041740
TAFGMU
TAF
KGMU 041740Z 0418/0518 05007KT P6SM SCT060
     FM042000 05005KT P6SM VCTS SCT070CB
     FM050300 04004KT P6SM SCT060 PROB30 0503/0507 4SM TSRA BKN040CB
     FM050700 03005KT P6SM SCT045
     FM051400 05009KT P6SM BKN060 PROB30 0515/0518 4SM TSRA
      BKN040CB=

USA.gov is the U.S. government's official web portal to all federal, state and local government web resources and services.